Asaph, Pennsylvania
Current Conditions -  °F | °C
As of 8:55 AM on Wednesday 28 Jan 2015 (Local Time) from KN38 Reporting Station
Clear Clear  
Wind Chill: -3°   Ceiling: Unl
Heat Index: 12°   Visibility: 10mi
Dew Point:   Wind: 14mph
Humidity: 57%   Direction: 310°NW
Pressure: 30.12"   Gusts: 20mph
Location:  41.7308°N, 77.349°W
Report Text: KN38 281355Z AUTO 31012G17KT 10SM CLR M11/M18 A3012 RMK AO2
Loading
Personal Weather Stations






























Interactive Weather Map New forecast layout! Learn more

10-Day Weather Forecast

Advertisements
Track Severe Weather on mobile